Carlton, Minnesota
Current Conditions -  °F | °C
As of 8:17 AM on Thursday 29 Jan 2015 (Local Time) from KCOQ Reporting Station
Overcast Overcast  
Wind Chill: 14°   Ceiling: 1900
Heat Index: 27°   Visibility: 10mi
Dew Point: 19°   Wind: 17mph
Humidity: 74%   Direction: 310°NW
Pressure: 30.05"   Gusts: 24mph
Location:  46.66°N, 92.42°W
Report Text: KCOQ 291417Z AUTO 31015G21KT 10SM OVC019 M03/M07 A3005 RMK AO2
Loading
Personal Weather Stations






























Interactive Weather Map New forecast layout! Learn more

10-Day Weather Forecast

Advertisements
Track Severe Weather on mobile